Time;durP1;ratioP1;P1;durP2;ratioP2;P2;SDS_P1;SDS_P2;PMS_P1;PMS_P2;Temp;Humidity;BMP_temperature;BMP_pressure;BME280_temperature;BME280_humidity;BME280_pressure;Samples;Min_cycle;Max_cycle;Signal;HPM_P1;HPM_P2
2021/10/02 00:46:57;;;;;;;12.15;5.07;;;;;;;11.19;59.84;101341.66;4989567;28;20507;-67
2021/10/02 00:49:23;;;;;;;9.50;5.28;;;;;;;10.56;60.61;101279.16;4989432;28;20054;-69
2021/10/02 00:51:48;;;;;;;8.35;4.55;;;;;;;10.72;61.54;101354.00;4989564;28;20038;-70
2021/10/02 00:54:14;;;;;;;10.13;4.38;;;;;;;10.67;61.81;101355.47;4989392;28;20558;-71
2021/10/02 00:56:39;;;;;;;6.82;4.65;;;;;;;10.21;62.76;101353.94;4988756;28;20042;-70
2021/10/02 00:59:05;;;;;;;9.80;4.72;;;;;;;10.47;62.42;101347.56;4989386;28;20610;-70
2021/10/02 01:01:45;;;;;;;8.27;4.97;;;;;;;10.42;62.49;101346.44;4989574;28;20421;-71
2021/10/02 01:04:46;;;;;;;10.20;4.65;;;;;;;10.44;62.60;101344.84;4989441;28;20424;-70
2021/10/02 01:07:22;;;;;;;8.35;4.88;;;;;;;10.34;62.88;101337.38;4989507;28;20041;-68
2021/10/02 01:09:58;;;;;;;9.90;5.05;;;;;;;10.54;61.92;101329.81;4973372;28;20038;-67
2021/10/02 01:12:42;;;;;;;7.95;4.43;;;;;;;10.54;62.21;101335.84;4989141;28;20041;-72
2021/10/02 01:15:18;;;;;;;9.27;4.57;;;;;;;10.50;62.34;101336.50;4979394;28;20038;-67
2021/10/02 01:18:18;;;;;;;9.45;4.90;;;;;;;10.54;62.04;101332.41;5022141;28;20164;-66
2021/10/02 01:20:56;;;;;;;10.85;4.63;;;;;;;10.60;62.15;101332.72;5021889;28;20057;-68
2021/10/02 01:23:57;;;;;;;8.18;4.40;;;;;;;10.61;62.14;101337.06;5011499;28;20038;-68
2021/10/02 01:26:31;;;;;;;8.00;4.40;;;;;;;10.68;61.74;101334.00;5011634;28;20117;-68
2021/10/02 01:28:59;;;;;;;7.47;4.22;;;;;;;10.72;61.74;101335.91;5011577;28;20042;-70
2021/10/02 01:31:36;;;;;;;11.80;4.60;;;;;;;10.80;61.25;101334.63;5011398;28;20054;-68
2021/10/02 01:34:15;;;;;;;15.93;4.57;;;;;;;10.91;60.28;101319.63;5011627;28;20030;-68
2021/10/02 01:47:50;;;;;;;9.68;5.05;;;;;;;10.43;63.16;101335.31;5011024;28;20052;-67
2021/10/02 01:50:20;;;;;;;10.60;4.78;;;;;;;10.47;63.61;101341.53;5011158;28;20037;-70
2021/10/02 01:52:47;;;;;;;11.75;5.47;;;;;;;10.68;63.07;101341.75;5011232;28;20030;-68
2021/10/02 01:55:13;;;;;;;13.65;5.28;;;;;;;10.92;62.20;101356.69;5011180;28;20034;-68
2021/10/02 01:57:42;;;;;;;12.75;5.00;;;;;;;11.06;60.99;101332.41;5011403;28;20030;-68
2021/10/02 02:00:10;;;;;;;11.53;4.80;;;;;;;10.93;60.82;101333.50;5011041;28;20493;-68
2021/10/02 02:02:38;;;;;;;9.45;4.70;;;;;;;11.07;61.15;101347.09;5010999;28;20399;-69
2021/10/02 02:05:07;;;;;;;9.57;5.28;;;;;;;11.33;60.42;101348.38;5011512;28;20018;-71
2021/10/02 02:07:35;;;;;;;14.18;4.80;;;;;;;11.49;59.71;101343.94;5011332;28;20034;-69
2021/10/02 02:10:03;;;;;;;11.30;4.65;;;;;;;11.20;59.51;101296.00;5014811;28;20099;-68
2021/10/02 02:12:32;;;;;;;10.10;4.85;;;;;;;11.51;59.67;101347.47;4997136;28;20034;-68
2021/10/02 02:15:04;;;;;;;11.00;6.28;;;;;;;11.42;59.96;101341.88;5015006;28;20058;-68
2021/10/02 02:17:32;;;;;;;15.55;6.68;;;;;;;11.45;60.25;101342.00;5014832;28;20033;-68
2021/10/02 02:20:00;;;;;;;14.70;6.10;;;;;;;11.59;59.50;101351.31;5014873;28;20026;-67
2021/10/02 02:22:25;;;;;;;14.13;5.55;;;;;;;10.82;60.71;101304.56;5014737;28;20455;-70
2021/10/02 02:24:51;;;;;;;10.32;5.70;;;;;;;10.64;61.91;101344.97;5014888;28;20032;-69
2021/10/02 02:27:16;;;;;;;12.35;5.30;;;;;;;10.43;62.83;101347.31;5015156;28;20030;-68
2021/10/02 02:29:42;;;;;;;17.38;5.80;;;;;;;10.30;62.91;101349.22;5014513;28;20030;-68
2021/10/02 02:32:08;;;;;;;17.13;5.30;;;;;;;9.96;63.75;101341.44;5014765;28;20046;-69
2021/10/02 02:34:33;;;;;;;11.90;5.20;;;;;;;10.15;63.07;101330.38;4997147;28;20084;-66
2021/10/02 02:36:59;;;;;;;14.05;7.15;;;;;;;10.27;62.95;101343.03;5014337;28;20040;-68
2021/10/02 02:39:26;;;;;;;18.17;7.70;;;;;;;10.09;62.72;101306.84;5014533;28;20073;-68
2021/10/02 02:41:52;;;;;;;15.80;6.65;;;;;;;9.69;64.30;101352.00;5014423;28;20523;-68
2021/10/02 02:44:18;;;;;;;11.85;5.72;;;;;;;9.20;66.41;101358.78;5013941;28;20034;-68
2021/10/02 02:46:53;;;;;;;12.77;5.38;;;;;;;9.23;65.37;101327.16;5014382;28;20400;-68
2021/10/02 02:49:41;;;;;;;9.57;4.70;;;;;;;8.87;67.05;101348.34;5014495;28;20034;-68
2021/10/02 02:52:25;;;;;;;8.75;4.75;;;;;;;8.95;66.84;101356.50;5012613;28;20490;-70
2021/10/02 02:55:18;;;;;;;9.10;4.40;;;;;;;9.33;65.86;101351.75;5013926;28;20037;-70
2021/10/02 02:57:48;;;;;;;16.95;4.97;;;;;;;9.55;64.91;101339.25;4972449;28;20049;-68
2021/10/02 03:00:19;;;;;;;10.30;4.95;;;;;;;9.48;64.86;101347.47;4972668;28;20147;-67
2021/10/02 03:02:50;;;;;;;9.32;4.82;;;;;;;9.39;65.28;101341.78;4972729;28;20031;-68
2021/10/02 03:05:18;;;;;;;10.63;4.78;;;;;;;9.32;64.64;101303.59;4972560;28;20035;-71
2021/10/02 03:08:11;;;;;;;10.20;4.88;;;;;;;9.63;64.24;101342.28;4972499;28;20031;-67
2021/10/02 03:10:38;;;;;;;9.82;4.80;;;;;;;9.61;64.17;101317.19;4972530;28;20528;-68
2021/10/02 03:13:11;;;;;;;14.77;5.13;;;;;;;9.74;64.67;101342.84;4940417;28;20042;-68
2021/10/02 03:15:38;;;;;;;14.23;5.13;;;;;;;9.76;64.99;101348.06;4972392;28;20122;-69
2021/10/02 03:18:04;;;;;;;8.23;4.63;;;;;;;9.69;64.85;101346.84;4972230;28;20031;-70
2021/10/02 03:20:31;;;;;;;9.40;5.18;;;;;;;9.84;64.17;101347.72;4971290;28;20030;-71
2021/10/02 03:22:57;;;;;;;10.23;4.95;;;;;;;9.90;64.31;101347.13;4972292;28;20078;-67
2021/10/02 03:25:25;;;;;;;15.27;4.85;;;;;;;9.97;63.99;101348.34;4972240;28;20047;-68
2021/10/02 03:27:56;;;;;;;;;;;;;;;9.74;64.48;101350.56;4972547;28;20058;-66
2021/10/02 03:30:22;;;;;;;7.07;4.65;;;;;;;9.74;64.72;101341.97;4972020;28;19921;-68
2021/10/02 03:32:50;;;;;;;8.07;3.92;;;;;;;9.31;65.69;101306.97;4971911;28;20074;-67
2021/10/02 03:35:17;;;;;;;8.63;4.63;;;;;;;9.53;65.12;101335.72;4973800;28;20047;-68
2021/10/02 03:37:43;;;;;;;6.90;4.75;;;;;;;9.70;64.47;101335.75;4974195;28;20413;-68
2021/10/02 03:40:10;;;;;;;10.55;5.53;;;;;;;9.60;64.90;101331.78;4974211;28;20031;-68
2021/10/02 03:42:43;;;;;;;12.18;5.53;;;;;;;9.73;65.56;101346.22;4974051;28;20034;-67
2021/10/02 03:45:10;;;;;;;11.13;5.20;;;;;;;9.97;64.45;101338.03;4988092;28;20043;-68
2021/10/02 03:47:35;;;;;;;9.63;5.10;;;;;;;10.12;63.92;101338.84;4974309;28;20110;-68
2021/10/02 03:50:03;;;;;;;9.90;5.15;;;;;;;10.23;63.55;101335.94;4974237;28;20045;-68
2021/10/02 03:52:28;;;;;;;9.40;4.93;;;;;;;10.28;63.39;101326.75;4974145;28;20031;-69
2021/10/02 03:54:54;;;;;;;11.13;5.57;;;;;;;10.50;63.13;101337.41;4974325;28;20062;-68
2021/10/02 03:57:19;;;;;;;9.57;5.60;;;;;;;10.59;62.84;101329.25;4973862;28;20063;-68
2021/10/02 03:59:44;;;;;;;9.73;5.50;;;;;;;10.61;62.52;101317.28;4974024;28;20037;-68
2021/10/02 04:02:10;;;;;;;13.45;6.05;;;;;;;10.76;61.71;101330.09;4974007;28;20038;-68
2021/10/02 04:04:35;;;;;;;11.07;5.70;;;;;;;10.57;62.25;101333.44;4973951;28;20053;-68
2021/10/02 04:07:01;;;;;;;14.93;6.07;;;;;;;10.38;62.65;101326.47;4973802;28;20478;-68
2021/10/02 04:09:27;;;;;;;18.55;7.00;;;;;;;10.58;62.63;101344.66;4973644;28;20545;-69
2021/10/02 04:11:52;;;;;;;20.63;7.28;;;;;;;10.70;62.46;101334.06;4988485;28;20042;-69
2021/10/02 04:14:19;;;;;;;10.50;5.80;;;;;;;10.59;62.24;101302.53;4973212;28;20038;-70
2021/10/02 04:16:45;;;;;;;11.27;5.93;;;;;;;10.86;62.17;101335.72;4991412;28;20037;-68
2021/10/02 04:19:11;;;;;;;12.57;5.25;;;;;;;10.90;60.91;101316.97;4993111;28;20420;-68
2021/10/02 04:21:37;;;;;;;17.27;5.88;;;;;;;10.87;60.75;101322.88;4992886;28;20034;-68
2021/10/02 04:24:02;;;;;;;15.82;5.90;;;;;;;10.95;60.62;101320.66;4992806;28;20114;-68
2021/10/02 04:26:28;;;;;;;15.05;5.00;;;;;;;11.14;60.38;101333.69;4992729;28;20030;-67
2021/10/02 04:28:54;;;;;;;14.77;6.22;;;;;;;11.28;60.09;101336.91;4993150;28;20034;-68
2021/10/02 04:31:19;;;;;;;16.48;5.43;;;;;;;11.39;60.00;101334.84;5006510;28;20111;-67
2021/10/02 04:33:45;;;;;;;17.17;5.72;;;;;;;11.22;59.88;101315.94;5031708;28;20047;-72
2021/10/02 04:36:12;;;;;;;8.90;4.80;;;;;;;11.21;60.14;101346.91;5031878;28;20037;-69
2021/10/02 04:38:38;;;;;;;7.32;4.47;;;;;;;10.97;60.67;101352.63;5028628;28;20030;-69
2021/10/02 04:41:04;;;;;;;8.18;4.82;;;;;;;10.83;60.99;101347.66;5011822;28;20092;-68
2021/10/02 04:43:33;;;;;;;14.48;5.03;;;;;;;10.94;61.50;101362.81;5012388;28;20412;-73
2021/10/02 04:45:59;;;;;;;10.47;4.33;;;;;;;11.06;61.21;101345.31;5012235;28;20117;-67
2021/10/02 04:48:25;;;;;;;9.57;4.95;;;;;;;11.08;61.89;101347.97;4977507;28;20045;-68
2021/10/02 04:50:51;;;;;;;16.30;5.20;;;;;;;11.17;62.18;101359.66;5011975;28;20033;-69
2021/10/02 04:53:16;;;;;;;15.48;5.18;;;;;;;10.99;61.31;101348.41;5012057;28;20032;-69
2021/10/02 04:55:42;;;;;;;18.15;5.72;;;;;;;11.17;61.23;101356.19;5011843;28;20095;-68
2021/10/02 04:58:09;;;;;;;12.85;5.53;;;;;;;11.02;61.82;101329.63;5011968;28;20050;-68
2021/10/02 05:00:35;;;;;;;11.85;5.25;;;;;;;10.73;62.41;101322.19;5011995;28;20036;-68
2021/10/02 05:03:02;;;;;;;11.38;6.43;;;;;;;10.51;63.34;101352.06;5011782;28;20057;-69
2021/10/02 05:05:27;;;;;;;13.98;6.65;;;;;;;10.74;63.04;101356.63;5011631;28;20412;-69
2021/10/02 05:07:53;;;;;;;15.63;6.50;;;;;;;10.97;62.49;101357.81;5011684;28;20022;-68
2021/10/02 05:10:18;;;;;;;15.57;5.82;;;;;;;11.25;61.72;101356.56;5011639;28;20037;-70
2021/10/02 05:12:44;;;;;;;17.88;5.95;;;;;;;11.24;61.15;101345.34;5020818;28;20060;-68
2021/10/02 05:15:09;;;;;;;15.55;6.25;;;;;;;11.25;60.81;101325.53;5023930;28;20083;-68
2021/10/02 05:17:35;;;;;;;12.68;6.22;;;;;;;11.21;61.73;101363.28;5028160;28;20408;-68
2021/10/02 05:20:00;;;;;;;17.40;6.50;;;;;;;10.77;62.74;101362.84;5031146;28;20033;-68
2021/10/02 05:22:26;;;;;;;20.80;6.03;;;;;;;11.14;61.62;101379.28;5031104;28;20029;-70
2021/10/02 05:24:51;;;;;;;17.60;7.25;;;;;;;11.26;61.63;101348.88;5031115;28;20108;-72
2021/10/02 05:27:17;;;;;;;16.35;6.82;;;;;;;11.16;63.03;101362.16;5031261;28;20029;-68
2021/10/02 05:29:43;;;;;;;10.20;6.13;;;;;;;11.10;62.90;101333.44;5031286;28;20041;-68
2021/10/02 05:32:10;;;;;;;16.40;6.45;;;;;;;11.39;62.63;101363.28;5030794;28;20531;-68
2021/10/02 05:34:36;;;;;;;15.38;6.82;;;;;;;11.12;62.48;101316.31;5031311;28;20404;-68
2021/10/02 05:37:02;;;;;;;12.95;7.13;;;;;;;11.32;63.47;101366.41;5031489;28;20470;-69
2021/10/02 05:39:28;;;;;;;18.08;9.23;;;;;;;11.43;62.29;101352.28;5031143;28;20119;-68
2021/10/02 05:41:55;;;;;;;20.55;9.82;;;;;;;11.50;62.45;101356.03;5031262;28;20029;-69
2021/10/02 05:44:20;;;;;;;26.50;9.32;;;;;;;11.31;62.29;101347.44;5034333;28;20026;-68
2021/10/02 05:46:46;;;;;;;21.40;8.00;;;;;;;11.14;62.49;101374.13;5034264;28;20026;-68
2021/10/02 05:49:11;;;;;;;15.13;6.43;;;;;;;11.01;62.17;101367.47;5034928;28;20025;-68
2021/10/02 05:51:37;;;;;;;11.75;5.75;;;;;;;11.05;61.69;101353.88;5034943;28;20022;-69
2021/10/02 05:54:03;;;;;;;11.07;6.00;;;;;;;11.28;60.36;101362.78;5034904;28;20034;-67
2021/10/02 05:56:28;;;;;;;14.00;6.45;;;;;;;11.47;59.82;101358.47;5035011;28;20552;-70
2021/10/02 05:58:54;;;;;;;11.45;5.00;;;;;;;11.53;60.94;101366.53;5035089;28;20531;-68
2021/10/02 06:01:19;;;;;;;14.10;5.63;;;;;;;11.61;59.78;101361.72;5035083;28;20087;-67
2021/10/02 06:03:45;;;;;;;7.55;4.30;;;;;;;11.64;59.56;101369.63;5034594;28;20029;-68
2021/10/02 06:06:14;;;;;;;14.05;4.43;;;;;;;11.76;58.58;101372.81;5017090;28;20025;-70
2021/10/02 06:08:40;;;;;;;11.15;3.97;;;;;;;11.77;58.74;101359.03;5034765;28;20033;-68
2021/10/02 06:11:06;;;;;;;7.50;4.15;;;;;;;11.87;58.66;101352.56;5035018;28;20034;-70
2021/10/02 06:13:33;;;;;;;9.13;4.00;;;;;;;12.10;58.48;101376.97;5034685;28;20033;-68
2021/10/02 06:16:00;;;;;;;11.65;4.10;;;;;;;12.12;58.39;101382.19;5034686;28;20167;-67
2021/10/02 06:18:25;;;;;;;13.65;4.55;;;;;;;12.11;58.12;101367.47;5033269;28;20025;-68
2021/10/02 06:20:51;;;;;;;17.75;6.47;;;;;;;12.01;59.62;101367.88;5034338;28;20171;-68
2021/10/02 06:23:17;;;;;;;11.98;5.35;;;;;;;11.89;59.39;101358.72;5034738;28;20030;-69
2021/10/02 06:25:42;;;;;;;10.75;6.00;;;;;;;11.92;59.75;101370.91;5034840;28;20179;-67
2021/10/02 06:28:08;;;;;;;12.48;6.07;;;;;;;11.80;58.70;101374.72;5034340;28;20087;-68
2021/10/02 06:30:33;;;;;;;14.80;6.78;;;;;;;11.60;59.03;101355.69;5034609;28;20037;-70
2021/10/02 06:32:59;;;;;;;11.73;6.43;;;;;;;11.70;60.20;101371.59;5016505;28;20049;-69
2021/10/02 06:35:24;;;;;;;8.85;4.45;;;;;;;11.90;58.77;101365.66;5016514;28;20036;-68
2021/10/02 06:37:50;;;;;;;10.43;4.60;;;;;;;11.97;58.85;101372.94;5034163;28;20929;-67
2021/10/02 06:40:15;;;;;;;8.90;4.72;;;;;;;11.96;58.45;101367.66;5034112;28;20132;-69
2021/10/02 06:42:41;;;;;;;16.23;5.35;;;;;;;12.12;58.99;101356.31;5033814;28;20029;-72
2021/10/02 06:45:08;;;;;;;16.95;10.00;;;;;;;12.18;58.52;101379.88;5034344;28;20479;-68
2021/10/02 06:47:33;;;;;;;17.75;8.38;;;;;;;12.09;59.27;101382.06;5032663;28;20103;-67
2021/10/02 06:50:00;;;;;;;16.38;7.07;;;;;;;12.01;60.28;101373.94;5033954;28;20483;-67
2021/10/02 06:52:27;;;;;;;11.43;5.93;;;;;;;12.02;59.37;101372.25;5033834;28;20468;-69
2021/10/02 06:54:53;;;;;;;11.40;5.43;;;;;;;12.00;59.76;101384.22;5033944;28;20036;-68
2021/10/02 06:57:19;;;;;;;36.30;19.20;;;;;;;12.05;60.22;101380.13;5033949;28;20411;-69
2021/10/02 06:59:44;;;;;;;52.88;29.15;;;;;;;11.82;59.63;101313.59;5033817;28;20030;-68
2021/10/02 07:02:10;;;;;;;42.17;21.13;;;;;;;12.06;60.38;101343.09;5033565;28;20029;-68
2021/10/02 07:04:35;;;;;;;23.25;12.82;;;;;;;12.27;59.46;101359.59;5033520;28;20032;-71
2021/10/02 07:07:01;;;;;;;7.85;4.68;;;;;;;12.49;58.90;101375.19;5033637;28;20038;-68
2021/10/02 07:09:27;;;;;;;8.55;3.88;;;;;;;12.37;57.91;101347.91;5033885;28;20037;-68
2021/10/02 07:11:52;;;;;;;11.27;4.28;;;;;;;12.59;57.55;101361.81;5033659;28;20048;-68
2021/10/02 07:14:18;;;;;;;7.45;3.75;;;;;;;12.62;58.46;101372.31;5032399;28;20068;-68
2021/10/02 07:16:43;;;;;;;8.85;3.58;;;;;;;12.86;57.86;101381.94;5033524;28;20033;-67
2021/10/02 07:19:09;;;;;;;10.23;3.95;;;;;;;12.84;57.22;101373.22;5033262;28;20030;-69
2021/10/02 07:21:34;;;;;;;9.32;3.47;;;;;;;12.93;57.70;101382.28;5015391;28;20040;-67
2021/10/02 07:24:00;;;;;;;12.18;4.13;;;;;;;12.97;58.35;101385.00;5033587;28;20104;-69
2021/10/02 07:26:25;;;;;;;8.25;3.60;;;;;;;13.09;58.72;101368.22;5033576;28;20484;-71
2021/10/02 07:28:52;;;;;;;10.70;3.45;;;;;;;13.25;58.25;101377.53;5033312;28;20041;-67
2021/10/02 07:31:18;;;;;;;6.30;3.33;;;;;;;13.32;56.72;101370.00;5033053;28;20045;-68
2021/10/02 07:33:44;;;;;;;8.40;3.65;;;;;;;13.19;55.96;101334.91;5019562;28;20168;-67
2021/10/02 07:36:10;;;;;;;11.90;3.20;;;;;;;13.41;55.56;101375.59;4995807;28;20026;-73
2021/10/02 07:38:36;;;;;;;8.70;4.18;;;;;;;13.43;55.64;101374.84;5013385;28;20534;-67
2021/10/02 07:41:02;;;;;;;10.98;3.83;;;;;;;13.56;55.38;101371.00;5013290;28;20041;-69
2021/10/02 07:43:27;;;;;;;8.43;3.55;;;;;;;13.51;55.29;101364.75;5013295;28;20048;-68
2021/10/02 07:45:54;;;;;;;11.32;4.35;;;;;;;13.61;55.49;101376.38;5013150;28;20173;-68
2021/10/02 07:48:24;;;;;;;7.32;3.40;;;;;;;13.79;55.06;101378.78;5013058;28;20041;-67
2021/10/02 07:50:52;;;;;;;8.85;3.58;;;;;;;13.94;54.38;101375.03;5013283;28;20109;-68
2021/10/02 07:53:18;;;;;;;9.38;3.88;;;;;;;14.03;53.87;101363.28;5013267;28;20088;-73
2021/10/02 07:55:46;;;;;;;7.82;3.38;;;;;;;14.19;53.22;101363.81;5013189;28;20026;-73
2021/10/02 07:58:12;;;;;;;10.48;3.20;;;;;;;14.21;52.59;101368.25;5013081;28;20026;-68
2021/10/02 08:00:38;;;;;;;7.75;3.10;;;;;;;14.20;52.24;101352.59;5013871;28;20100;-68
2021/10/02 08:03:04;;;;;;;9.27;3.50;;;;;;;14.38;54.42;101366.25;5032451;28;20131;-69
2021/10/02 08:05:29;;;;;;;5.68;2.53;;;;;;;14.41;51.81;101355.09;5032093;28;20033;-71
2021/10/02 08:07:55;;;;;;;6.57;2.83;;;;;;;14.46;50.48;101363.06;5032762;28;20131;-69
2021/10/02 08:10:25;;;;;;;5.70;2.65;;;;;;;14.60;50.53;101371.34;5032711;28;20025;-68
2021/10/02 08:12:50;;;;;;;7.68;2.83;;;;;;;14.79;52.53;101362.47;5032403;28;20029;-69
2021/10/02 08:15:17;;;;;;;6.60;3.40;;;;;;;14.85;50.06;101361.00;5032502;28;20498;-68
2021/10/02 08:17:44;;;;;;;14.82;3.28;;;;;;;14.92;48.75;101361.19;5032175;28;20029;-69
2021/10/02 08:20:13;;;;;;;7.85;3.03;;;;;;;14.99;49.31;101368.34;5032330;28;20051;-71
2021/10/02 08:22:42;;;;;;;8.48;3.33;;;;;;;15.01;48.96;101366.69;5032474;28;20025;-69
2021/10/02 08:25:10;;;;;;;8.80;2.55;;;;;;;14.75;48.47;101311.22;5032273;28;20029;-67
2021/10/02 08:27:35;;;;;;;7.00;3.03;;;;;;;15.21;48.00;101362.13;5032184;28;20458;-69
2021/10/02 08:30:07;;;;;;;7.70;3.40;;;;;;;15.19;49.20;101369.91;5032024;28;20033;-70
2021/10/02 08:32:33;;;;;;;6.70;2.60;;;;;;;15.19;49.05;101366.44;5032191;28;20053;-69
2021/10/02 08:34:58;;;;;;;7.38;3.05;;;;;;;15.27;49.07;101359.72;5031944;28;20021;-69
2021/10/02 08:37:24;;;;;;;11.02;3.30;;;;;;;15.39;48.25;101367.06;5032096;28;20581;-74
2021/10/02 08:39:50;;;;;;;13.27;3.00;;;;;;;15.41;50.13;101354.97;5014487;28;20476;-73
2021/10/02 08:42:17;;;;;;;8.93;3.13;;;;;;;15.43;47.99;101348.09;5031787;28;20112;-68
2021/10/02 08:44:43;;;;;;;11.40;3.33;;;;;;;15.48;47.08;101353.44;5031772;28;20026;-68
2021/10/02 08:47:09;;;;;;;11.15;3.30;;;;;;;15.41;47.25;101354.09;5031909;28;20043;-69
2021/10/02 08:49:40;;;;;;;10.95;3.75;;;;;;;15.47;47.83;101360.34;5014086;28;20029;-71
2021/10/02 08:52:06;;;;;;;13.88;4.18;;;;;;;15.65;46.60;101360.06;5031890;28;20033;-68
2021/10/02 08:54:44;;;;;;;8.18;3.38;;;;;;;15.77;46.77;101364.72;5031779;28;20533;-68
2021/10/02 08:57:16;;;;;;;7.18;3.00;;;;;;;15.86;47.26;101364.16;5031653;28;20029;-68
2021/10/02 08:59:42;;;;;;;15.68;3.67;;;;;;;15.60;45.96;101296.56;5031707;28;20543;-68
2021/10/02 09:02:08;;;;;;;10.43;2.85;;;;;;;15.87;46.07;101334.69;5031610;28;20124;-69
2021/10/02 09:04:35;;;;;;;8.73;3.05;;;;;;;16.10;46.44;101343.16;5031435;28;20043;-70
2021/10/02 09:07:02;;;;;;;6.57;3.10;;;;;;;16.16;47.33;101326.81;5031739;28;20126;-67
2021/10/02 09:09:28;;;;;;;8.13;3.20;;;;;;;16.23;46.62;101333.97;5031218;28;20104;-68
2021/10/02 09:11:54;;;;;;;7.18;3.03;;;;;;;16.29;45.64;101348.91;5031238;28;20472;-71
2021/10/02 09:14:19;;;;;;;9.10;2.97;;;;;;;16.24;45.46;101346.16;5031679;28;20022;-68
2021/10/02 09:16:46;;;;;;;6.80;2.67;;;;;;;15.88;45.70;101306.94;5026908;28;20026;-68
2021/10/02 09:19:11;;;;;;;13.38;3.28;;;;;;;16.14;46.09;101344.13;5022117;28;20477;-71
2021/10/02 09:21:44;;;;;;;6.97;2.63;;;;;;;16.26;45.57;101343.56;5016205;28;20022;-68
2021/10/02 09:24:28;;;;;;;8.23;2.95;;;;;;;16.44;44.73;101338.00;5027086;28;20041;-69
2021/10/02 09:26:55;;;;;;;10.32;3.22;;;;;;;16.41;46.56;101294.50;5020279;28;20091;-70
2021/10/02 09:29:41;;;;;;;11.65;3.30;;;;;;;16.58;44.44;101327.94;5021425;28;20610;-69
2021/10/02 09:32:10;;;;;;;12.52;3.30;;;;;;;16.58;44.89;101317.50;4992299;28;20096;-69
2021/10/02 09:34:49;;;;;;;11.30;3.40;;;;;;;16.65;44.31;101322.03;5031623;28;20030;-69
2021/10/02 09:37:32;;;;;;;8.53;3.10;;;;;;;16.70;44.33;101306.50;4996956;28;20121;-70
2021/10/02 09:40:20;;;;;;;12.20;3.30;;;;;;;16.83;44.62;101311.19;5026733;28;20689;-70
2021/10/02 09:42:53;;;;;;;8.85;3.15;;;;;;;17.03;43.23;101316.03;5019515;28;20037;-70
2021/10/02 09:45:23;;;;;;;9.43;2.88;;;;;;;17.05;42.42;101314.38;5020188;28;20026;-68
2021/10/02 09:47:52;;;;;;;9.25;3.30;;;;;;;17.09;43.56;101317.06;5020576;28;20030;-69
2021/10/02 09:50:23;;;;;;;9.20;3.20;;;;;;;17.29;43.34;101291.41;5024082;28;20059;-67
2021/10/02 09:52:54;;;;;;;8.40;3.10;;;;;;;17.87;41.63;101300.47;5020342;28;20107;-68
2021/10/02 09:55:31;;;;;;;14.30;3.90;;;;;;;18.18;40.25;101290.66;5026401;28;20037;-72
2021/10/02 09:57:58;;;;;;;21.58;5.32;;;;;;;18.48;42.94;101282.50;5023115;28;20030;-69
2021/10/02 10:00:30;;;;;;;12.25;3.13;;;;;;;18.67;41.17;101269.75;5024832;28;20028;-69
2021/10/02 10:02:57;;;;;;;8.93;3.00;;;;;;;18.81;40.62;101260.34;5027277;28;20033;-70
2021/10/02 10:05:33;;;;;;;6.60;2.63;;;;;;;18.76;39.50;101234.13;5021936;28;20030;-72
2021/10/02 10:08:00;;;;;;;11.68;3.00;;;;;;;18.83;39.46;101260.38;5020601;28;20500;-70
2021/10/02 10:10:28;;;;;;;9.55;2.65;;;;;;;18.86;39.40;101243.00;5019828;28;21558;-71
2021/10/02 10:12:54;;;;;;;9.32;2.80;;;;;;;19.01;39.76;101259.81;5018199;28;20057;-70
2021/10/02 10:15:27;;;;;;;8.57;2.85;;;;;;;19.10;38.77;101259.94;5023547;28;20111;-71
2021/10/02 10:17:53;;;;;;;7.40;2.72;;;;;;;19.13;38.57;101256.50;5019258;28;20026;-70
2021/10/02 10:20:19;;;;;;;7.47;2.60;;;;;;;19.14;38.64;101267.00;5021207;28;20105;-70
2021/10/02 10:22:56;;;;;;;6.70;2.83;;;;;;;19.13;39.33;101230.31;5019515;28;20033;-71
2021/10/02 10:25:21;;;;;;;5.35;2.30;;;;;;;19.34;39.24;101253.28;5019511;28;20030;-70
2021/10/02 10:27:47;;;;;;;9.45;2.88;;;;;;;19.42;38.57;101242.94;5017424;28;20369;-69
2021/10/02 10:30:24;;;;;;;8.18;3.25;;;;;;;19.39;37.45;101252.50;5013250;28;20041;-71
2021/10/02 10:32:59;;;;;;;9.32;2.92;;;;;;;19.36;38.66;101246.34;5019929;28;20041;-71
2021/10/02 10:35:27;;;;;;;6.55;2.78;;;;;;;19.39;37.19;101244.66;5033915;28;20026;-69
2021/10/02 10:37:53;;;;;;;9.20;2.45;;;;;;;19.52;37.18;101227.34;5034409;28;20045;-75
2021/10/02 10:40:19;;;;;;;12.05;2.33;;;;;;;19.59;37.74;101232.66;5027599;28;20030;-75
2021/10/02 10:42:44;;;;;;;12.50;3.53;;;;;;;19.54;36.67;101230.88;5022624;28;20041;-69
2021/10/02 10:45:10;;;;;;;8.40;3.08;;;;;;;19.84;35.78;101226.00;5024937;28;20025;-70
2021/10/02 10:47:36;;;;;;;15.88;4.00;;;;;;;20.11;36.10;101233.28;5022481;28;20113;-72
2021/10/02 10:50:02;;;;;;;12.98;2.30;;;;;;;20.19;35.02;101228.97;5024158;28;20502;-72
2021/10/02 10:52:35;;;;;;;9.35;2.20;;;;;;;20.07;35.61;101225.38;5024272;28;20447;-72
2021/10/02 10:55:01;;;;;;;12.57;3.17;;;;;;;20.18;35.64;101208.84;5023499;28;20591;-72
2021/10/02 10:57:33;;;;;;;7.18;2.28;;;;;;;20.46;34.93;101214.34;5015542;28;20026;-74
2021/10/02 11:00:00;;;;;;;6.28;1.98;;;;;;;20.44;34.55;101221.31;5014102;28;20069;-70
2021/10/02 11:02:44;;;;;;;11.18;2.38;;;;;;;20.73;33.97;101220.69;5023981;28;20075;-70
2021/10/02 11:05:34;;;;;;;12.07;2.75;;;;;;;20.88;33.24;101206.78;5023150;28;20164;-69
2021/10/02 11:08:00;;;;;;;6.32;2.30;;;;;;;20.97;33.77;101208.59;5024546;28;20029;-65
2021/10/02 11:10:44;;;;;;;9.02;2.20;;;;;;;20.94;34.48;101211.22;5022692;28;20018;-70
2021/10/02 11:13:26;;;;;;;8.80;3.15;;;;;;;20.59;35.37;101209.22;5023160;28;20033;-69
2021/10/02 11:15:53;;;;;;;7.75;3.00;;;;;;;20.66;35.76;101192.63;5023446;28;20052;-70
2021/10/02 11:18:46;;;;;;;7.40;2.20;;;;;;;20.66;35.00;101205.72;5022036;28;20037;-72
2021/10/02 11:21:14;;;;;;;6.72;2.45;;;;;;;20.32;34.73;101195.84;5024891;28;20041;-65
2021/10/02 11:23:40;;;;;;;4.85;2.08;;;;;;;19.97;36.03;101199.03;5021926;28;20040;-71
2021/10/02 11:26:22;;;;;;;8.70;2.63;;;;;;;20.00;36.46;101201.72;5013159;28;20484;-67
2021/10/02 11:28:52;;;;;;;8.05;2.72;;;;;;;20.08;35.13;101190.44;5028540;28;20056;-68
2021/10/02 11:31:22;;;;;;;5.97;1.85;;;;;;;20.05;35.95;101186.03;5025420;28;20593;-69
2021/10/02 11:33:52;;;;;;;5.85;2.08;;;;;;;19.89;37.02;101200.72;5022638;28;20026;-71
2021/10/02 11:36:41;;;;;;;4.70;2.20;;;;;;;19.71;35.86;101186.53;5022234;28;20109;-74
2021/10/02 11:39:12;;;;;;;8.73;2.67;;;;;;;19.88;36.77;101198.97;5022433;28;20038;-67
2021/10/02 11:41:48;;;;;;;11.50;2.78;;;;;;;20.01;36.35;101198.22;5020729;28;20475;-66
2021/10/02 11:44:21;;;;;;;3.25;1.90;;;;;;;19.98;36.15;101190.31;5021938;28;20030;-66
2021/10/02 11:46:46;;;;;;;4.40;1.95;;;;;;;19.85;36.34;101184.09;5022067;28;20033;-68
2021/10/02 11:49:18;;;;;;;6.63;1.75;;;;;;;19.74;36.02;101169.97;5016603;28;20025;-71
2021/10/02 11:52:10;;;;;;;4.90;1.80;;;;;;;19.66;36.24;101176.88;5019612;28;20032;-67
2021/10/02 11:54:36;;;;;;;4.22;1.60;;;;;;;19.90;36.43;101183.25;5031259;28;20399;-71
2021/10/02 11:57:14;;;;;;;6.93;2.65;;;;;;;19.86;35.68;101171.84;5031632;28;20025;-68
2021/10/02 11:59:46;;;;;;;5.53;2.20;;;;;;;19.76;35.54;101167.38;5029016;28;20021;-73
2021/10/02 12:02:14;;;;;;;6.53;2.40;;;;;;;19.71;36.85;101172.53;5015841;28;20116;-70
2021/10/02 12:04:40;;;;;;;5.05;2.15;;;;;;;19.71;36.35;101131.53;5013480;28;20026;-67
2021/10/02 12:07:06;;;;;;;6.18;1.70;;;;;;;19.70;35.78;101165.53;5018027;28;20140;-67
2021/10/02 12:09:32;;;;;;;5.30;1.50;;;;;;;19.63;36.41;101162.00;5031596;28;20104;-69
2021/10/02 12:11:58;;;;;;;5.75;2.00;;;;;;;19.60;35.20;101159.34;5031124;28;20455;-70
2021/10/02 12:14:27;;;;;;;11.85;2.47;;;;;;;19.70;35.91;101162.94;5028486;28;20021;-70
2021/10/02 12:16:54;;;;;;;8.68;2.05;;;;;;;19.91;35.41;101158.81;5018062;28;20032;-72
2021/10/02 12:19:20;;;;;;;3.67;1.80;;;;;;;19.83;34.23;101133.41;5030958;28;20021;-70
2021/10/02 12:21:49;;;;;;;13.05;2.80;;;;;;;20.04;34.86;101147.56;5031232;28;20862;-78
2021/10/02 12:24:20;;;;;;;8.65;2.90;;;;;;;20.08;35.30;101149.34;5031246;28;20030;-71
2021/10/02 12:26:55;;;;;;;19.77;5.25;;;;;;;20.33;35.44;101152.19;5031326;28;20040;-72